Mount Storm, West Virginia
Current Conditions -  °F | °C
As of 9:10 AM on Monday 26 Jan 2015 (Local Time) from KW99 Reporting Station
Light Snow Light Snow  
Wind Chill: 29°   Ceiling: 300
Heat Index: 33°   Visibility: 1mi
Dew Point: 33°   Wind: 5mph
Humidity: 100%   Direction: 10°N
Pressure: 29.74"   Gusts: NA
Location:  39.28°N, 79.24°W
Report Text: KW99 261410Z AUTO 01004KT 1SM -SN BKN003 BKN009 OVC017 01/01 A2974 RMK AO2 T00060006
Loading
Personal Weather Stations






























Interactive Weather Map New forecast layout! Learn more

10-Day Weather Forecast

Advertisements
Track Severe Weather on mobile